Time;durP1;ratioP1;P1;durP2;ratioP2;P2;SDS_P1;SDS_P2;PMS_P1;PMS_P2;Temp;Humidity;BMP_temperature;BMP_pressure;BME280_temperature;BME280_humidity;BME280_pressure;Samples;Min_cycle;Max_cycle;Signal;HPM_P1;HPM_P2
2022/07/13 00:02:11;;;;;;;7.97;6.63;;;;;;;;;;5079288;28;20469;-80
2022/07/13 00:04:37;;;;;;;8.32;6.55;;;;;;;;;;5095191;28;20397;-80
2022/07/13 00:07:02;;;;;;;8.73;6.60;;;21.70;99.90;;;;;;5128428;27;20901;-80
2022/07/13 00:09:28;;;;;;;8.60;6.40;;;;;;;;;;5111606;28;20407;-80
2022/07/13 00:11:55;;;;;;;8.77;6.70;;;;;;;;;;5128070;27;20440;-80
2022/07/13 00:14:20;;;;;;;9.30;7.00;;;21.20;99.90;;;;;;5125695;27;20419;-81
2022/07/13 00:16:46;;;;;;;10.33;6.80;;;;;;;;;;5124795;27;20503;-80
2022/07/13 00:19:12;;;;;;;8.15;6.78;;;;;;;;;;5097848;27;20479;-80
2022/07/13 00:21:39;;;;;;;11.83;7.87;;;;;;;;;;5097174;27;20463;-80
2022/07/13 00:24:05;;;;;;;9.02;7.13;;;;;;;;;;5094778;28;20730;-80
2022/07/13 00:26:31;;;;;;;8.52;6.82;;;;;;;;;;5123136;27;21027;-81
2022/07/13 00:28:57;;;;;;;9.02;7.13;;;;;;;;;;5132853;27;20495;-81
2022/07/13 00:31:23;;;;;;;13.20;7.15;;;;;;;;;;5114842;27;20402;-80
2022/07/13 00:33:49;;;;;;;9.18;7.50;;;;;;;;;;5132105;27;20403;-80
2022/07/13 00:36:15;;;;;;;11.07;7.03;;;21.10;99.90;;;;;;5142603;27;20500;-80
2022/07/13 00:38:41;;;;;;;9.95;7.70;;;;;;;;;;5131321;27;20489;-80
2022/07/13 00:41:07;;;;;;;9.70;7.40;;;;;;;;;;5094004;28;20412;-80
2022/07/13 00:43:32;;;;;;;9.48;7.45;;;21.20;99.90;;;;;;5089903;28;20431;-80
2022/07/13 00:45:59;;;;;;;14.80;7.75;;;21.10;99.90;;;;;;5096969;28;20412;-80
2022/07/13 00:48:26;;;;;;;8.98;7.78;;;21.20;99.90;;;;;;5119303;27;20463;-80
2022/07/13 00:50:52;;;;;;;9.38;7.63;;;;;;;;;;5099203;28;20809;-80
2022/07/13 00:53:19;;;;;;;13.98;8.05;;;;;;;;;;5110908;28;20502;-80
2022/07/13 00:55:46;;;;;;;10.85;7.88;;;21.10;99.90;;;;;;5113900;28;20758;-80
2022/07/13 00:58:12;;;;;;;12.65;7.88;;;;;;;;;;5106022;28;20419;-80
2022/07/13 01:00:37;;;;;;;10.73;8.00;;;21.10;99.90;;;;;;5113312;28;20415;-79
2022/07/13 01:03:03;;;;;;;10.47;8.40;;;;;;;;;;5084617;28;20416;-79
2022/07/13 01:05:29;;;;;;;9.23;8.18;;;;;;;;;;5084397;28;20461;-80
2022/07/13 01:07:56;;;;;;;11.40;8.20;;;21.20;99.90;;;;;;5110941;28;20448;-80
2022/07/13 01:10:22;;;;;;;9.23;8.13;;;;;;;;;;5079430;28;20471;-80
2022/07/13 01:12:48;;;;;;;16.35;8.30;;;21.00;99.90;;;;;;5112963;27;20403;-80
2022/07/13 01:15:14;;;;;;;9.25;8.35;;;;;;;;;;5103844;27;20441;-80
2022/07/13 01:17:40;;;;;;;12.30;8.55;;;;;;;;;;5122370;27;20925;-80
2022/07/13 01:20:07;;;;;;;10.35;8.45;;;21.10;99.90;;;;;;5096664;27;20425;-80
2022/07/13 01:22:54;;;;;;;10.57;8.45;;;21.00;99.90;;;;;;5095046;28;20912;-80
2022/07/13 01:25:20;;;;;;;10.33;9.00;;;;;;;;;;5100136;28;20898;-80
2022/07/13 01:27:48;;;;;;;10.25;8.77;;;21.00;99.90;;;;;;5112619;28;20418;-80
2022/07/13 01:30:15;;;;;;;13.05;8.35;;;;;;;;;;5110301;27;20442;-80
2022/07/13 01:32:51;;;;;;;9.93;8.57;;;21.00;99.90;;;;;;5121569;27;20962;-80
2022/07/13 01:35:20;;;;;;;12.63;8.50;;;21.20;99.90;;;;;;5110947;28;20419;-80
2022/07/13 01:37:47;;;;;;;11.13;8.77;;;20.90;99.90;;;;;;5110782;28;20501;-80
2022/07/13 01:40:13;;;;;;;11.68;9.05;;;;;;;;;;5114192;27;20406;-80
2022/07/13 01:42:47;;;;;;;12.25;9.02;;;21.20;99.90;;;;;;5096948;27;20422;-80
2022/07/13 01:45:15;;;;;;;10.40;9.13;;;21.10;99.90;;;;;;5113708;27;20444;-80
2022/07/13 01:47:47;;;;;;;11.20;8.68;;;21.10;99.90;;;;;;5116545;27;20411;-80
2022/07/13 01:50:14;;;;;;;10.90;9.00;;;21.00;99.90;;;;;;5129730;27;20471;-80
2022/07/13 01:52:40;;;;;;;11.60;9.10;;;;;;;;;;5080321;28;20420;-80
2022/07/13 01:55:07;;;;;;;12.30;9.15;;;;;;;;;;5112388;27;20503;-79
2022/07/13 01:57:33;;;;;;;10.07;8.60;;;;;;;;;;5094917;28;20416;-79
2022/07/13 02:00:00;;;;;;;9.50;8.50;;;21.10;99.90;;;;;;5116629;27;20420;-79
2022/07/13 02:02:27;;;;;;;10.00;8.73;;;21.50;99.90;;;;;;5115721;27;20420;-79
2022/07/13 02:04:54;;;;;;;11.27;8.48;;;21.20;99.90;;;;;;5132252;27;20796;-79
2022/07/13 02:07:21;;;;;;;10.85;8.23;;;;;;;;;;5099056;27;20566;-79
2022/07/13 02:09:47;;;;;;;10.52;8.52;;;;;;;;;;5126351;27;20412;-79
2022/07/13 02:12:13;;;;;;;11.03;8.07;;;21.30;99.90;;;;;;5122281;27;20723;-79
2022/07/13 02:14:39;;;;;;;8.63;7.73;;;;;;;;;;5113746;28;20491;-79
2022/07/13 02:17:05;;;;;;;9.90;8.00;;;;;;;;;;5110734;28;20496;-80
2022/07/13 02:19:31;;;;;;;10.15;7.88;;;;;;;;;;5097628;27;20980;-80
2022/07/13 02:21:57;;;;;;;9.50;7.72;;;;;;;;;;5123299;27;20420;-80
2022/07/13 02:24:23;;;;;;;9.93;8.30;;;21.20;99.90;;;;;;5113284;28;20392;-79
2022/07/13 02:26:49;;;;;;;9.85;7.88;;;;;;;;;;5094982;27;20503;-79
2022/07/13 02:29:15;;;;;;;9.23;8.10;;;21.20;99.90;;;;;;5095757;28;20427;-79
2022/07/13 02:31:41;;;;;;;10.95;7.93;;;;;;;;;;5118209;27;20469;-79
2022/07/13 02:34:07;;;;;;;9.88;7.97;;;;;;;;;;5133181;27;20430;-80
2022/07/13 02:36:33;;;;;;;11.65;8.60;;;21.30;99.90;;;;;;5117656;27;20435;-79
2022/07/13 02:38:59;;;;;;;11.20;8.10;;;;;;;;;;5096015;28;20396;-79
2022/07/13 02:41:25;;;;;;;11.27;8.07;;;21.10;99.90;;;;;;5096647;27;20426;-79
2022/07/13 02:43:51;;;;;;;10.55;8.07;;;21.20;99.90;;;;;;5116880;27;20434;-79
2022/07/13 02:46:17;;;;;;;9.48;8.27;;;;;;;;;;5111631;27;20419;-79
2022/07/13 02:48:43;;;;;;;9.40;8.20;;;;;;;;;;5113661;27;20915;-79
2022/07/13 02:51:09;;;;;;;10.50;8.40;;;;;;;;;;5121395;27;20864;-79
2022/07/13 02:53:35;;;;;;;11.32;8.52;;;21.20;99.90;;;;;;5097267;27;20424;-80
2022/07/13 02:56:01;;;;;;;10.10;7.95;;;;;;;;;;5096156;27;20434;-80
2022/07/13 02:58:27;;;;;;;11.90;8.30;;;;;;;;;;5124082;27;20412;-79
2022/07/13 03:00:53;;;;;;;10.40;8.40;;;;;;;;;;5104297;27;20422;-79
2022/07/13 03:03:19;;;;;;;9.90;8.40;;;;;;;;;;5116018;27;20422;-79
2022/07/13 03:05:45;;;;;;;9.68;8.60;;;;;;;;;;5095890;28;20400;-80
2022/07/13 03:08:11;;;;;;;11.20;8.70;;;;;;;;;;5118465;27;20507;-80
2022/07/13 03:10:37;;;;;;;12.30;8.80;;;21.00;99.90;;;;;;5095527;28;20473;-80
2022/07/13 03:13:03;;;;;;;11.83;8.77;;;;;;;;;;5108341;27;20426;-80
2022/07/13 03:15:29;;;;;;;10.77;9.30;;;;;;;;;;5112191;27;20412;-79
2022/07/13 03:17:54;;;;;;;10.18;8.88;;;21.00;99.90;;;;;;5126307;27;20418;-80
2022/07/13 03:20:21;;;;;;;10.83;8.77;;;;;;;;;;5098620;27;20473;-80
2022/07/13 03:22:49;;;;;;;10.25;8.40;;;;;;;;;;5107062;27;20697;-80
2022/07/13 03:25:15;;;;;;;10.13;8.50;;;;;;;;;;5095986;28;20420;-79
2022/07/13 03:27:41;;;;;;;11.60;8.55;;;;;;;;;;5095171;28;20516;-79
2022/07/13 03:30:08;;;;;;;10.38;8.30;;;21.40;99.90;;;;;;5109964;27;20458;-79
2022/07/13 03:32:34;;;;;;;10.60;7.95;;;;;;;;;;5088356;28;20416;-80
2022/07/13 03:35:00;;;;;;;10.52;8.25;;;;;;;;;;5117486;27;20511;-79
2022/07/13 03:37:26;;;;;;;9.70;7.95;;;;;;;;;;5094352;28;20513;-79
2022/07/13 03:39:52;;;;;;;10.32;8.00;;;;;;;;;;5095131;27;20447;-79
2022/07/13 03:42:18;;;;;;;9.20;8.13;;;;;;;;;;5097819;28;20420;-80
2022/07/13 03:44:44;;;;;;;10.07;7.50;;;21.30;99.90;;;;;;5109290;27;20420;-80
2022/07/13 03:47:10;;;;;;;9.53;7.90;;;;;;;;;;5093942;28;20420;-80
2022/07/13 03:49:36;;;;;;;8.97;7.77;;;;;;;;;;5098418;27;20455;-80
2022/07/13 03:52:02;;;;;;;9.43;7.85;;;;;;;;;;5128429;27;20435;-80
2022/07/13 03:54:28;;;;;;;9.52;7.78;;;;;;;;;;5098212;27;20416;-80
2022/07/13 03:56:54;;;;;;;8.93;7.30;;;;;;;;;;5094343;27;20509;-80
2022/07/13 03:59:20;;;;;;;9.20;7.65;;;;;;;;;;5103715;27;20454;-80
2022/07/13 04:01:46;;;;;;;9.27;7.22;;;;;;;;;;5112278;27;20962;-79
2022/07/13 04:04:12;;;;;;;8.93;7.50;;;21.40;99.90;;;;;;5089956;27;20407;-80
2022/07/13 04:06:38;;;;;;;8.95;7.55;;;;;;;;;;5096566;27;20968;-80
2022/07/13 04:09:04;;;;;;;10.25;7.55;;;;;;;;;;5117954;27;20414;-80
2022/07/13 04:11:31;;;;;;;8.90;7.10;;;;;;;;;;5099777;28;20507;-81
2022/07/13 04:13:57;;;;;;;9.05;7.47;;;;;;;;;;5116174;28;20396;-81
2022/07/13 04:16:23;;;;;;;9.30;7.25;;;;;;;;;;5102534;28;20427;-81
2022/07/13 04:18:49;;;;;;;11.13;7.70;;;21.10;99.90;;;;;;5124235;28;20876;-82
2022/07/13 04:21:14;;;;;;;9.30;6.82;;;20.80;99.90;;;;;;5129190;28;20826;-81
2022/07/13 04:23:41;;;;;;;8.85;7.35;;;;;;;;;;5133268;27;20508;-82
2022/07/13 04:26:07;;;;;;;8.68;7.38;;;;;;;;;;5137478;27;20414;-83
2022/07/13 04:28:33;;;;;;;8.25;7.35;;;;;;;;;;5149157;27;20411;-82
2022/07/13 04:31:00;;;;;;;9.63;7.73;;;;;;;;;;5132485;27;20760;-80
2022/07/13 04:33:26;;;;;;;9.23;7.82;;;;;;;;;;5107087;27;20485;-82
2022/07/13 04:35:52;;;;;;;8.37;7.53;;;;;;;;;;5124076;27;20483;-82
2022/07/13 04:38:18;;;;;;;8.90;8.00;;;21.00;99.90;;;;;;5095201;28;20408;-82
2022/07/13 04:40:47;;;;;;;14.07;8.10;;;21.20;99.90;;;;;;5110465;28;20473;-81
2022/07/13 04:43:13;;;;;;;11.80;7.93;;;;;;;;;;5148890;27;20956;-81
2022/07/13 04:45:39;;;;;;;9.43;7.60;;;;;;;;;;5126906;27;20423;-83
2022/07/13 04:48:05;;;;;;;9.90;7.50;;;;;;;;;;5139633;27;20501;-83
2022/07/13 04:50:31;;;;;;;9.32;7.80;;;21.10;99.90;;;;;;5119764;27;20395;-82
2022/07/13 04:52:57;;;;;;;9.97;7.40;;;;;;;;;;5134386;27;20423;-83
2022/07/13 04:55:23;;;;;;;9.88;7.63;;;21.10;99.90;;;;;;5116728;28;20788;-82
2022/07/13 04:57:49;;;;;;;8.00;7.05;;;;;;;;;;5116474;28;20416;-83
2022/07/13 05:00:16;;;;;;;8.38;7.20;;;;;;;;;;5102787;28;20471;-83
2022/07/13 05:02:42;;;;;;;9.10;7.75;;;21.30;99.90;;;;;;5140276;27;20749;-83
2022/07/13 05:05:08;;;;;;;8.77;7.85;;;;;;;;;;5128667;28;20434;-83
2022/07/13 05:07:34;;;;;;;10.10;7.70;;;21.10;99.90;;;;;;5132030;28;20449;-83
2022/07/13 05:10:00;;;;;;;8.93;7.73;;;;;;;;;;5122973;28;20439;-82
2022/07/13 05:12:26;;;;;;;10.53;7.70;;;21.50;99.90;;;;;;5114525;28;20888;-82
2022/07/13 05:14:52;;;;;;;8.63;7.47;;;;;;;;;;5106322;28;20396;-83
2022/07/13 05:17:18;;;;;;;9.68;8.10;;;;;;;;;;5114101;27;20794;-81
2022/07/13 05:19:44;;;;;;;8.63;7.70;;;;;;;;;;5127326;27;20767;-81
2022/07/13 05:22:10;;;;;;;8.50;7.40;;;;;;;;;;5093668;28;20439;-81
2022/07/13 05:24:36;;;;;;;9.77;7.90;;;;;;;;;;5115677;28;20394;-82
2022/07/13 05:27:03;;;;;;;9.73;7.85;;;;;;;;;;5146676;27;20426;-82
2022/07/13 05:29:29;;;;;;;9.13;7.47;;;;;;;;;;5150838;27;20421;-82
2022/07/13 05:31:55;;;;;;;9.43;8.10;;;;;;;;;;5100391;28;20794;-82
2022/07/13 05:34:20;;;;;;;10.98;8.15;;;21.40;99.90;;;;;;5124133;27;20455;-82
2022/07/13 05:36:46;;;;;;;11.10;7.93;;;;;;;;;;5117376;28;20756;-82
2022/07/13 05:39:13;;;;;;;10.20;7.60;;;;;;;;;;5112376;28;20411;-82
2022/07/13 05:41:39;;;;;;;12.02;8.18;;;;;;;;;;5093923;27;20421;-82
2022/07/13 05:44:05;;;;;;;11.82;8.40;;;;;;;;;;5136745;27;20405;-80
2022/07/13 05:46:31;;;;;;;9.95;8.00;;;;;;;;;;5113708;27;22164;-80
2022/07/13 05:48:57;;;;;;;9.82;8.32;;;21.40;99.90;;;;;;5109103;27;20419;-78
2022/07/13 05:51:23;;;;;;;11.68;8.75;;;21.50;99.90;;;;;;5098194;28;20396;-79
2022/07/13 05:53:50;;;;;;;12.30;9.40;;;;;;;;;;5089471;27;20430;-81
2022/07/13 05:56:16;;;;;;;10.82;9.15;;;21.50;99.90;;;;;;5138083;27;20406;-81
2022/07/13 05:58:42;;;;;;;12.75;9.02;;;;;;;;;;5105431;28;20403;-81
2022/07/13 06:01:08;;;;;;;13.75;10.20;;;;;;;;;;5099654;28;20406;-81
2022/07/13 06:03:34;;;;;;;10.93;9.75;;;21.70;99.90;;;;;;5117080;28;20469;-80
2022/07/13 06:06:00;;;;;;;10.75;9.38;;;;;;;;;;5113660;28;20474;-81
2022/07/13 06:08:26;;;;;;;13.10;10.00;;;;;;;;;;5094759;28;20396;-80
2022/07/13 06:10:54;;;;;;;13.02;9.77;;;22.30;99.90;;;;;;5110285;28;20426;-81
2022/07/13 06:13:20;;;;;;;11.82;9.77;;;22.20;99.90;;;;;;5089812;28;20412;-80
2022/07/13 06:15:46;;;;;;;11.00;9.83;;;;;;;;;;5119178;28;20461;-80
2022/07/13 06:18:12;;;;;;;13.13;10.03;;;;;;;;;;5119342;28;20438;-81
2022/07/13 06:20:38;;;;;;;13.98;10.07;;;;;;;;;;5118029;28;20926;-80
2022/07/13 06:23:10;;;;;;;12.57;10.00;;;;;;;;;;5109629;28;20443;-81
2022/07/13 06:25:40;;;;;;;12.13;10.02;;;22.30;99.90;;;;;;5112500;27;20753;-79
2022/07/13 06:28:06;;;;;;;12.13;9.93;;;;;;;;;;5102010;27;20772;-81
2022/07/13 06:30:35;;;;;;;12.35;9.90;;;;;;;;;;5115702;27;20416;-82
2022/07/13 06:33:02;;;;;;;12.13;10.77;;;;;;;;;;5126150;27;20401;-82
2022/07/13 06:35:29;;;;;;;12.90;10.30;;;;;;;;;;5128828;27;20413;-81
2022/07/13 06:37:55;;;;;;;14.55;9.95;;;;;;;;;;5157176;27;20401;-82
2022/07/13 06:40:21;;;;;;;12.65;10.05;;;22.50;99.90;;;;;;5145628;27;20406;-82
2022/07/13 06:42:47;;;;;;;13.48;10.10;;;;;;;;;;5138246;27;20451;-82
2022/07/13 06:45:14;;;;;;;12.15;9.80;;;22.50;99.90;;;;;;5140477;27;20427;-83
2022/07/13 06:47:40;;;;;;;13.00;9.70;;;22.60;99.90;;;;;;5127782;27;20444;-83
2022/07/13 06:50:06;;;;;;;11.77;9.90;;;22.40;99.90;;;;;;5099161;28;20533;-83
2022/07/13 06:52:33;;;;;;;12.70;9.80;;;22.80;99.90;;;;;;5126334;27;20405;-83
2022/07/13 06:54:59;;;;;;;13.93;10.13;;;22.50;99.90;;;;;;5113955;27;20424;-82
2022/07/13 06:57:24;;;;;;;12.60;9.60;;;22.80;99.90;;;;;;5133919;27;20416;-82
2022/07/13 06:59:50;;;;;;;12.50;9.75;;;22.80;99.90;;;;;;5149769;27;20405;-83
2022/07/13 07:02:16;;;;;;;12.53;9.90;;;22.80;99.90;;;;;;5141964;27;20416;-84
2022/07/13 07:04:42;;;;;;;12.23;9.87;;;;;;;;;;5117380;27;20872;-83
2022/07/13 07:07:08;;;;;;;11.55;9.23;;;23.10;99.90;;;;;;5106230;27;20421;-80
2022/07/13 07:09:34;;;;;;;11.82;9.25;;;;;;;;;;5143441;27;20433;-81
2022/07/13 07:12:00;;;;;;;12.48;9.38;;;;;;;;;;5132672;27;20420;-82
2022/07/13 07:14:26;;;;;;;11.48;9.95;;;;;;;;;;5137866;27;20422;-81
2022/07/13 07:16:52;;;;;;;14.38;9.73;;;23.30;99.90;;;;;;5097950;28;20411;-81
2022/07/13 07:19:18;;;;;;;12.85;9.88;;;23.50;99.90;;;;;;5081375;28;20404;-81
2022/07/13 07:21:43;;;;;;;15.18;9.68;;;23.40;99.90;;;;;;5116086;28;20396;-81
2022/07/13 07:24:09;;;;;;;11.40;9.43;;;23.30;99.90;;;;;;5080655;28;20404;-82
2022/07/13 07:26:35;;;;;;;12.52;9.68;;;23.40;99.90;;;;;;5080229;28;20430;-81
2022/07/13 07:29:01;;;;;;;12.48;9.55;;;23.40;99.90;;;;;;5114142;28;20423;-81
2022/07/13 07:31:26;;;;;;;19.37;9.20;;;23.80;99.90;;;;;;5103605;27;20399;-81
2022/07/13 07:33:52;;;;;;;12.40;9.47;;;23.90;99.90;;;;;;5119224;28;20450;-81
2022/07/13 07:36:18;;;;;;;12.82;9.23;;;23.90;99.90;;;;;;5095683;28;20404;-81
2022/07/13 07:38:44;;;;;;;11.35;8.68;;;23.90;99.90;;;;;;5122684;27;20421;-81
2022/07/13 07:41:10;;;;;;;12.68;8.07;;;24.00;99.90;;;;;;5090516;28;20752;-81
2022/07/13 07:43:39;;;;;;;12.23;8.20;;;24.10;99.90;;;;;;5122201;28;20420;-81
2022/07/13 07:46:05;;;;;;;11.47;7.13;;;24.10;99.90;;;;;;5124884;27;20766;-82
2022/07/13 07:48:31;;;;;;;8.73;7.13;;;24.20;99.90;;;;;;5115943;28;20756;-81
2022/07/13 07:50:58;;;;;;;10.83;7.10;;;24.30;99.90;;;;;;5133092;27;20392;-81
2022/07/13 07:53:24;;;;;;;9.98;6.78;;;24.20;99.90;;;;;;5132891;27;20396;-81
2022/07/13 07:55:50;;;;;;;10.93;7.43;;;;;;;;;;5133345;27;20483;-81
2022/07/13 07:58:16;;;;;;;9.82;6.50;;;24.60;99.90;;;;;;5133777;27;20400;-81
2022/07/13 08:00:42;;;;;;;9.60;6.47;;;24.50;99.90;;;;;;5101694;28;20392;-82
2022/07/13 08:03:09;;;;;;;8.80;6.30;;;24.70;99.90;;;;;;5121139;28;20450;-81
2022/07/13 08:05:35;;;;;;;10.70;7.50;;;24.70;99.90;;;;;;5135836;27;20395;-81
2022/07/13 08:08:02;;;;;;;11.32;7.72;;;24.90;99.90;;;;;;5136318;27;20392;-82
2022/07/13 08:10:28;;;;;;;9.43;7.30;;;24.90;99.90;;;;;;5120609;28;20503;-81
2022/07/13 08:12:55;;;;;;;12.25;6.65;;;25.00;99.90;;;;;;5102005;28;20408;-82
2022/07/13 08:15:22;;;;;;;10.25;6.40;;;;;;;;;;5114736;27;20915;-81
2022/07/13 08:17:48;;;;;;;10.40;5.57;;;25.20;99.90;;;;;;5121185;27;20822;-82
2022/07/13 08:20:13;;;;;;;10.27;5.47;;;25.30;99.90;;;;;;5106824;27;20455;-82
2022/07/13 08:22:39;;;;;;;6.53;4.80;;;25.20;99.90;;;;;;5092894;28;20415;-82
2022/07/13 08:25:08;;;;;;;7.07;4.93;;;25.30;99.90;;;;;;5113276;28;20399;-82
2022/07/13 08:27:34;;;;;;;9.88;7.57;;;25.40;99.90;;;;;;5097761;27;20420;-82
2022/07/13 08:30:00;;;;;;;9.77;6.22;;;25.60;99.90;;;;;;5118922;27;20946;-72
2022/07/13 08:32:44;;;;;;;10.63;5.93;;;25.60;99.90;;;;;;5130798;27;20408;-84
2022/07/13 08:40:46;;;;;;;8.68;5.03;;;25.40;99.90;;;;;;5133450;27;20426;-84
2022/07/13 08:43:12;;;;;;;9.40;5.55;;;27.00;99.90;;;;;;5144061;27;20415;-83
2022/07/13 08:45:41;;;;;;;6.63;4.60;;;27.10;99.90;;;;;;5128663;27;20453;-83
2022/07/13 08:48:17;;;;;;;6.45;4.20;;;26.30;99.90;;;;;;5117057;28;20406;-83
2022/07/13 08:50:44;;;;;;;11.32;6.05;;;26.40;99.90;;;;;;5108846;28;20415;-83
2022/07/13 08:53:10;;;;;;;7.20;4.32;;;26.60;99.90;;;;;;5113939;27;20404;-83
2022/07/13 08:55:38;;;;;;;11.82;6.05;;;26.50;99.90;;;;;;5127807;28;20480;-83
2022/07/13 08:58:03;;;;;;;7.95;5.25;;;26.70;99.90;;;;;;5119939;28;20424;-83
2022/07/13 09:00:29;;;;;;;7.67;4.70;;;26.50;99.90;;;;;;5112204;28;20476;-83
2022/07/13 09:02:56;;;;;;;9.90;5.15;;;26.70;99.90;;;;;;5102707;28;20476;-83
2022/07/13 09:05:24;;;;;;;7.28;5.15;;;26.70;99.90;;;;;;5147988;27;20406;-83
2022/07/13 09:08:09;;;;;;;6.90;4.68;;;26.70;99.90;;;;;;5100497;27;20415;-83
2022/07/13 09:10:54;;;;;;;6.15;3.85;;;26.90;99.90;;;;;;5127351;27;20424;-84
2022/07/13 09:13:44;;;;;;;6.97;4.07;;;26.90;99.90;;;;;;5102793;28;20422;-82
2022/07/13 09:16:21;;;;;;;8.20;4.93;;;27.40;99.90;;;;;;5122440;27;20404;-82
2022/07/13 09:18:52;;;;;;;8.85;4.45;;;27.20;99.90;;;;;;5126783;27;20447;-83
2022/07/13 09:21:19;;;;;;;7.85;4.40;;;27.30;99.90;;;;;;5123592;27;20416;-83
2022/07/13 09:23:49;;;;;;;7.75;4.30;;;27.00;99.90;;;;;;5111038;28;20494;-82
2022/07/13 09:26:16;;;;;;;6.67;3.20;;;27.60;99.90;;;;;;5124077;27;20875;-82
2022/07/13 09:28:47;;;;;;;5.32;3.10;;;27.90;99.90;;;;;;5065754;28;20413;-83
2022/07/13 09:31:14;;;;;;;6.38;3.45;;;27.80;99.90;;;;;;5092122;28;20446;-82
2022/07/13 09:33:43;;;;;;;7.35;4.30;;;27.70;99.90;;;;;;5123498;27;21493;-83
2022/07/13 09:36:17;;;;;;;7.32;4.60;;;27.60;99.90;;;;;;5122394;28;20435;-83
2022/07/13 09:38:44;;;;;;;8.23;4.40;;;27.50;99.90;;;;;;5115540;28;20422;-83
2022/07/13 09:41:18;;;;;;;6.38;3.80;;;26.90;99.90;;;;;;5123236;28;20510;-83
2022/07/13 09:46:56;;;;;;;7.90;4.00;;;25.40;99.90;;;;;;5105112;28;20416;-83
2022/07/13 09:49:34;;;;;;;7.60;4.07;;;27.60;99.90;;;;;;5118420;27;20458;-83
2022/07/13 09:52:02;;;;;;;10.47;4.00;;;27.60;99.90;;;;;;5113731;28;20491;-82
2022/07/13 09:54:29;;;;;;;7.15;4.10;;;27.30;99.90;;;;;;5115642;28;20421;-82
2022/07/13 09:57:01;;;;;;;6.25;3.03;;;27.20;99.90;;;;;;5130521;28;20905;-83
2022/07/13 09:59:28;;;;;;;5.55;2.97;;;27.40;99.90;;;;;;5107703;27;21028;-82
2022/07/13 10:01:54;;;;;;;7.40;3.10;;;27.40;99.90;;;;;;5115104;27;20492;-82
2022/07/13 10:04:22;;;;;;;4.88;2.90;;;27.30;99.90;;;;;;5136666;27;20748;-82
2022/07/13 10:06:49;;;;;;;5.70;3.10;;;27.60;99.90;;;;;;5132376;27;20972;-83
2022/07/13 10:09:18;;;;;;;8.18;3.95;;;27.60;99.90;;;;;;5133815;27;20656;-83
2022/07/13 10:11:44;;;;;;;5.20;3.20;;;27.80;99.90;;;;;;5104129;27;20414;-83
2022/07/13 10:14:12;;;;;;;6.07;3.20;;;28.20;99.90;;;;;;5117611;27;20470;-83
2022/07/13 10:16:38;;;;;;;5.65;3.40;;;27.90;99.90;;;;;;5114692;27;20468;-83
2022/07/13 10:19:07;;;;;;;6.83;3.40;;;27.90;99.90;;;;;;5113972;27;20483;-82
2022/07/13 10:21:54;;;;;;;5.93;2.75;;;27.70;99.90;;;;;;5130971;27;20858;-84
2022/07/13 10:24:20;;;;;;;4.43;2.25;;;28.10;99.90;;;;;;5114719;27;20426;-83
2022/07/13 10:26:49;;;;;;;4.68;2.90;;;27.60;99.90;;;;;;5143049;27;20406;-84
2022/07/13 10:29:15;;;;;;;4.85;2.78;;;28.00;99.90;;;;;;5117021;27;20394;-84
2022/07/13 10:31:42;;;;;;;5.00;2.40;;;28.10;99.90;;;;;;5114245;27;20425;-84
2022/07/13 10:34:10;;;;;;;4.68;2.20;;;28.00;99.90;;;;;;5124343;27;20773;-84
2022/07/13 10:36:51;;;;;;;5.13;2.40;;;27.90;99.90;;;;;;5145607;27;20403;-85
2022/07/13 10:39:25;;;;;;;7.55;2.53;;;28.00;99.90;;;;;;5125985;27;20420;-84
2022/07/13 10:42:00;;;;;;;4.75;2.60;;;28.00;99.90;;;;;;5116436;27;20423;-83
2022/07/13 10:44:42;;;;;;;4.17;2.10;;;28.10;99.90;;;;;;5136405;27;20413;-84
2022/07/13 10:47:12;;;;;;;4.40;2.90;;;28.10;99.90;;;;;;5131430;27;20423;-84
2022/07/13 10:49:47;;;;;;;5.20;2.90;;;27.80;99.90;;;;;;5113792;28;20468;-84
2022/07/13 10:52:22;;;;;;;3.85;2.30;;;27.80;99.90;;;;;;5113558;28;20415;-84
2022/07/13 10:55:07;;;;;;;5.10;2.10;;;27.80;99.90;;;;;;5135722;27;20481;-84
2022/07/13 10:57:44;;;;;;;4.35;2.22;;;27.70;99.90;;;;;;5122732;27;20421;-84
2022/07/13 11:00:28;;;;;;;7.40;2.10;;;27.70;99.90;;;;;;5109767;27;20410;-84
2022/07/13 11:03:07;;;;;;;5.13;3.10;;;27.60;99.90;;;;;;5132584;27;20417;-84
2022/07/13 11:05:36;;;;;;;4.53;2.15;;;27.10;99.90;;;;;;5126121;27;20427;-84
2022/07/13 11:08:15;;;;;;;4.05;2.10;;;27.50;99.90;;;;;;5114038;27;20490;-84
2022/07/13 11:10:41;;;;;;;4.97;2.70;;;27.40;99.90;;;;;;5111248;27;20972;-84
2022/07/13 11:13:14;;;;;;;5.07;2.40;;;27.10;99.90;;;;;;5097439;27;20424;-82
2022/07/13 11:15:50;;;;;;;4.43;2.40;;;27.40;99.90;;;;;;5119066;27;20428;-83
2022/07/13 11:18:25;;;;;;;4.43;3.07;;;27.70;99.90;;;;;;5099251;28;20423;-83
2022/07/13 11:21:22;;;;;;;5.07;2.90;;;27.70;99.90;;;;;;5121990;27;20812;-83
2022/07/13 11:27:07;;;;;;;4.97;2.78;;;27.90;99.90;;;;;;5128050;27;20902;-84
2022/07/13 11:29:45;;;;;;;4.13;2.33;;;28.00;99.90;;;;;;5133589;27;20395;-83
2022/07/13 11:32:12;;;;;;;4.70;2.50;;;27.80;99.90;;;;;;5124240;27;20628;-83
2022/07/13 11:34:38;;;;;;;4.78;3.10;;;27.90;99.90;;;;;;5112233;27;20418;-81
2022/07/13 11:37:04;;;;;;;4.40;2.60;;;27.80;99.90;;;;;;5117255;27;20416;-82
2022/07/13 11:39:35;;;;;;;5.22;2.80;;;27.50;99.90;;;;;;5122138;27;20766;-82
2022/07/13 11:42:05;;;;;;;4.13;2.50;;;27.60;99.90;;;;;;5124891;27;20410;-83
2022/07/13 11:44:32;;;;;;;4.78;3.03;;;27.50;99.90;;;;;;5131329;27;20449;-81
2022/07/13 11:47:03;;;;;;;5.07;3.28;;;27.60;99.90;;;;;;5130452;27;20402;-82
2022/07/13 11:49:45;;;;;;;4.53;2.58;;;27.10;99.90;;;;;;5103074;27;20484;-82
2022/07/13 11:52:22;;;;;;;5.03;3.22;;;26.80;99.90;;;;;;5112618;27;20427;-82
2022/07/13 11:54:58;;;;;;;6.93;3.53;;;25.30;99.90;;;;;;5126238;27;20498;-82
2022/07/13 11:57:24;;;;;;;5.70;3.35;;;26.50;99.90;;;;;;5131489;27;20526;-82
2022/07/13 11:59:50;;;;;;;5.03;3.20;;;26.80;99.90;;;;;;5119333;27;20420;-83
2022/07/13 12:02:16;;;;;;;5.93;3.38;;;27.00;99.90;;;;;;5106151;27;20467;-82
2022/07/13 12:04:46;;;;;;;6.05;4.18;;;27.30;99.90;;;;;;5119241;27;20841;-82
2022/07/13 12:07:20;;;;;;;6.07;3.40;;;27.20;99.90;;;;;;5131267;27;20831;-82
2022/07/13 12:10:06;;;;;;;5.78;4.57;;;27.60;99.90;;;;;;5114888;27;20447;-82
2022/07/13 12:12:36;;;;;;;6.57;3.70;;;27.20;99.90;;;;;;5102107;27;20422;-82
2022/07/13 12:15:04;;;;;;;7.97;4.00;;;27.30;99.90;;;;;;5115969;27;20408;-83
2022/07/13 12:17:42;;;;;;;6.68;4.20;;;27.30;99.90;;;;;;5115087;27;20419;-83
2022/07/13 12:20:11;;;;;;;7.97;4.15;;;27.20;99.90;;;;;;5124766;27;20399;-84
2022/07/13 12:22:38;;;;;;;5.57;4.05;;;27.10;99.90;;;;;;5121864;27;20418;-83
2022/07/13 12:25:04;;;;;;;5.93;4.32;;;26.80;99.90;;;;;;5114779;27;20420;-84
2022/07/13 12:27:31;;;;;;;5.43;4.07;;;26.80;99.90;;;;;;5099118;27;20408;-83
2022/07/13 12:30:11;;;;;;;6.75;4.80;;;26.90;99.90;;;;;;5131209;27;20886;-83
2022/07/13 12:33:00;;;;;;;9.18;5.40;;;27.00;99.90;;;;;;5123232;27;20987;-83
2022/07/13 12:35:30;;;;;;;6.25;3.10;;;26.70;99.90;;;;;;5120957;27;20422;-83
2022/07/13 12:37:58;;;;;;;6.18;3.20;;;27.00;99.90;;;;;;5127125;27;20422;-82
2022/07/13 12:40:40;;;;;;;5.10;3.30;;;27.10;99.90;;;;;;5115144;27;20434;-82
2022/07/13 12:43:19;;;;;;;8.25;5.53;;;27.00;99.90;;;;;;5102532;27;20529;-82
2022/07/13 12:45:54;;;;;;;6.07;3.55;;;27.00;99.90;;;;;;5114798;27;20455;-83
2022/07/13 12:48:24;;;;;;;6.50;3.63;;;27.00;99.90;;;;;;5115815;27;20756;-82
2022/07/13 12:51:16;;;;;;;7.60;3.33;;;26.80;99.90;;;;;;5122214;27;20974;-82
2022/07/13 12:53:50;;;;;;;5.43;3.20;;;27.00;99.90;;;;;;5124636;27;20922;-82
2022/07/13 12:56:17;;;;;;;6.53;3.17;;;27.00;99.90;;;;;;5120073;27;20439;-83
2022/07/13 12:58:47;;;;;;;7.30;3.53;;;27.00;99.90;;;;;;5125838;27;20432;-84
2022/07/13 13:01:35;;;;;;;8.43;5.35;;;26.90;99.90;;;;;;5105047;28;20428;-82
2022/07/13 13:04:02;;;;;;;7.93;5.13;;;26.80;99.90;;;;;;5122445;27;20416;-83
2022/07/13 13:06:30;;;;;;;7.07;3.33;;;26.90;99.90;;;;;;5112361;28;20412;-81
2022/07/13 13:09:13;;;;;;;5.60;3.13;;;26.60;99.90;;;;;;5109656;28;20440;-82
2022/07/13 13:11:41;;;;;;;6.90;3.40;;;26.70;99.90;;;;;;5119404;27;20509;-83
2022/07/13 13:14:13;;;;;;;7.50;2.88;;;26.70;99.90;;;;;;5126408;27;20896;-82
2022/07/13 13:16:40;;;;;;;6.07;3.05;;;26.90;99.90;;;;;;5123098;27;20815;-82
2022/07/13 13:19:07;;;;;;;5.63;2.88;;;26.70;99.90;;;;;;5126875;27;20414;-82
2022/07/13 13:21:34;;;;;;;6.85;5.05;;;26.60;99.90;;;;;;5121877;28;20512;-82
2022/07/13 13:24:06;;;;;;;5.55;2.85;;;26.60;99.90;;;;;;5124669;27;20408;-80
2022/07/13 13:26:36;;;;;;;7.22;3.53;;;26.40;99.90;;;;;;5122254;28;20498;-81
2022/07/13 13:31:47;;;;;;;7.25;3.70;;;26.20;99.90;;;;;;5120241;27;20420;-82
2022/07/13 13:34:16;;;;;;;7.93;3.78;;;26.20;99.90;;;;;;5116509;27;20412;-82
2022/07/13 13:36:41;;;;;;;6.87;3.40;;;26.00;99.90;;;;;;5121294;27;20422;-82
2022/07/13 13:39:07;;;;;;;7.18;3.03;;;26.00;99.90;;;;;;5122373;27;20410;-82
2022/07/13 13:41:34;;;;;;;5.53;3.67;;;26.80;99.90;;;;;;5104211;27;20452;-82